Time;durP1;ratioP1;P1;durP2;ratioP2;P2;SDS_P1;SDS_P2;PMS_P1;PMS_P2;Temp;Humidity;BMP_temperature;BMP_pressure;BME280_temperature;BME280_humidity;BME280_pressure;Samples;Min_cycle;Max_cycle;Signal;HPM_P1;HPM_P2
2022/01/09 00:00:11;;;;;;;11.50;6.10;;;;;;;2.09;76.82;93979.31;5092803;28;20529;-79
2022/01/09 00:02:37;;;;;;;12.75;5.43;;;;;;;2.09;75.64;93978.44;5094661;27;20035;-78
2022/01/09 00:05:03;;;;;;;8.75;5.10;;;;;;;2.07;76.27;93981.13;5092457;27;20042;-78
2022/01/09 00:07:28;;;;;;;8.32;4.95;;;;;;;1.96;75.90;93963.88;5076753;28;20031;-78
2022/01/09 00:09:56;;;;;;;7.68;4.43;;;;;;;1.98;75.53;93968.91;5111821;28;20038;-79
2022/01/09 00:12:21;;;;;;;7.38;4.07;;;;;;;2.03;75.38;93982.22;5111488;27;20417;-79
2022/01/09 00:14:47;;;;;;;8.30;4.30;;;;;;;1.96;75.39;93976.66;5111384;28;20034;-79
2022/01/09 00:17:12;;;;;;;8.02;4.10;;;;;;;1.88;75.31;93960.13;5111606;27;20030;-79
2022/01/09 00:19:38;;;;;;;8.90;4.53;;;;;;;1.93;74.79;93976.88;5132180;27;20034;-79
2022/01/09 00:22:03;;;;;;;8.75;4.28;;;;;;;1.91;75.24;93976.13;5132661;27;20091;-79
2022/01/09 00:24:29;;;;;;;8.93;4.25;;;;;;;1.89;75.01;93974.56;5132340;27;20043;-78
2022/01/09 00:26:54;;;;;;;9.13;4.50;;;;;;;1.86;75.23;93973.03;5104199;28;20054;-79
2022/01/09 00:29:20;;;;;;;9.70;4.88;;;;;;;1.69;75.29;93956.16;5110042;28;20019;-79
2022/01/09 00:31:45;;;;;;;9.82;4.35;;;;;;;1.78;75.61;93965.00;5102668;27;20422;-79
2022/01/09 00:34:10;;;;;;;8.43;4.32;;;;;;;1.69;74.73;93953.59;5113764;27;20023;-79
2022/01/09 00:36:36;;;;;;;10.05;4.88;;;;;;;1.80;76.64;93968.28;5130896;27;20516;-79
2022/01/09 00:39:01;;;;;;;10.18;4.93;;;;;;;1.79;76.89;93962.34;5130787;27;20034;-79
2022/01/09 00:41:27;;;;;;;9.27;5.10;;;;;;;1.81;77.30;93969.94;5113299;27;20039;-78
2022/01/09 00:43:52;;;;;;;10.15;5.90;;;;;;;1.77;76.97;93959.06;5093471;28;20023;-78
2022/01/09 00:46:18;;;;;;;10.95;5.55;;;;;;;1.78;76.72;93954.75;5112267;28;20039;-79
2022/01/09 00:48:43;;;;;;;9.77;5.13;;;;;;;1.81;76.38;93949.44;5111803;28;20496;-79
2022/01/09 00:51:09;;;;;;;9.65;4.68;;;;;;;1.74;76.41;93937.94;5101516;28;20515;-78
2022/01/09 00:53:34;;;;;;;9.23;4.78;;;;;;;1.82;76.69;93955.41;5111226;28;20405;-79
2022/01/09 00:55:59;;;;;;;9.98;5.20;;;;;;;1.82;76.93;93948.53;5110864;28;20040;-78
2022/01/09 00:58:25;;;;;;;12.43;6.00;;;;;;;1.81;77.01;93951.19;5082323;28;20497;-79
2022/01/09 01:00:50;;;;;;;9.63;4.97;;;;;;;1.82;77.06;93957.97;5111299;28;20096;-79
2022/01/09 01:03:16;;;;;;;8.25;4.50;;;;;;;1.89;76.79;93959.22;5111764;28;20020;-79
2022/01/09 01:05:41;;;;;;;7.18;3.90;;;;;;;1.92;76.36;93964.13;5093561;28;20036;-79
2022/01/09 01:08:07;;;;;;;7.40;4.15;;;;;;;1.84;76.12;93959.53;5110666;28;20031;-78
2022/01/09 01:10:32;;;;;;;7.63;4.30;;;;;;;1.93;75.75;93965.81;5121696;28;20484;-79
2022/01/09 01:12:57;;;;;;;11.30;6.13;;;;;;;1.83;75.98;93954.47;5114010;28;20028;-78
2022/01/09 01:15:23;;;;;;;10.40;5.97;;;;;;;1.77;76.27;93948.00;5113727;28;20028;-78
2022/01/09 01:17:48;;;;;;;10.32;4.13;;;;;;;1.71;75.70;93938.97;5130977;28;20035;-79
2022/01/09 01:20:14;;;;;;;8.00;4.40;;;;;;;1.74;75.66;93940.50;5120180;27;20043;-79
2022/01/09 01:22:40;;;;;;;8.55;5.10;;;;;;;1.69;75.22;93945.91;5097445;28;20032;-78
2022/01/09 01:25:06;;;;;;;8.50;4.35;;;;;;;1.69;75.65;93939.97;5116495;27;20083;-78
2022/01/09 01:27:31;;;;;;;7.45;4.10;;;;;;;1.69;75.39;93945.09;5119350;27;20024;-79
2022/01/09 01:29:57;;;;;;;8.30;4.45;;;;;;;1.68;75.72;93936.59;5114844;28;20054;-79
2022/01/09 01:32:23;;;;;;;7.25;4.50;;;;;;;1.64;75.99;93931.75;5115425;28;20034;-79
2022/01/09 01:34:48;;;;;;;8.07;4.07;;;;;;;1.65;76.51;93939.34;5097142;28;20390;-78
2022/01/09 01:37:14;;;;;;;6.55;3.92;;;;;;;1.62;75.84;93925.91;5097275;28;20066;-79
2022/01/09 01:39:39;;;;;;;8.20;3.75;;;;;;;1.66;75.69;93933.28;5128894;27;20031;-79
2022/01/09 01:42:05;;;;;;;8.70;4.47;;;;;;;1.59;75.88;93909.00;5117515;27;20042;-79
2022/01/09 01:44:43;;;;;;;9.07;4.18;;;;;;;1.63;75.82;93923.25;5136025;27;20102;-78
2022/01/09 01:47:09;;;;;;;7.72;4.28;;;;;;;1.59;75.77;93923.53;5096637;27;20461;-78
2022/01/09 01:49:35;;;;;;;8.75;4.32;;;;;;;1.54;75.68;93905.91;5130773;27;20030;-79
2022/01/09 01:52:00;;;;;;;7.78;4.20;;;;;;;1.60;75.81;93907.25;5096916;28;20032;-77
2022/01/09 01:54:27;;;;;;;6.65;3.58;;;;;;;1.62;76.22;93897.75;5096424;28;20026;-78
2022/01/09 01:56:52;;;;;;;6.82;4.00;;;;;;;1.67;76.43;93891.44;5127870;27;20035;-78
2022/01/09 01:59:18;;;;;;;6.45;3.47;;;;;;;1.67;76.45;93893.16;5133847;27;20084;-79
2022/01/09 02:01:43;;;;;;;6.53;3.80;;;;;;;1.65;75.66;93898.38;5134284;27;20497;-78
2022/01/09 02:04:08;;;;;;;5.68;3.60;;;;;;;1.62;75.82;93885.78;5135347;27;20034;-79
2022/01/09 02:06:34;;;;;;;7.53;4.22;;;;;;;1.66;76.41;93889.75;5113709;28;20043;-79
2022/01/09 02:09:00;;;;;;;8.18;4.10;;;;;;;1.68;77.15;93882.81;5096214;28;20085;-79
2022/01/09 02:11:26;;;;;;;7.35;3.72;;;;;;;1.70;77.03;93883.56;5113619;28;20035;-78
2022/01/09 02:13:52;;;;;;;8.32;4.25;;;;;;;1.65;76.29;93884.75;5114210;27;20027;-79
2022/01/09 02:16:18;;;;;;;6.82;3.88;;;;;;;1.51;75.77;93872.81;5126796;27;20115;-79
2022/01/09 02:18:44;;;;;;;7.35;4.07;;;;;;;1.60;75.44;93879.91;5133671;27;20035;-79
2022/01/09 02:21:10;;;;;;;12.30;5.30;;;;;;;1.59;74.35;93869.75;5128307;27;20039;-78
2022/01/09 02:23:38;;;;;;;18.48;6.97;;;;;;;1.51;74.97;93868.50;5113124;28;20546;-78
2022/01/09 02:26:03;;;;;;;14.77;6.55;;;;;;;1.47;76.07;93868.78;5096603;28;20106;-79
2022/01/09 02:28:29;;;;;;;17.08;6.50;;;;;;;1.50;75.81;93848.13;5095916;28;20481;-79
2022/01/09 02:30:55;;;;;;;16.13;6.22;;;;;;;1.49;75.58;93849.88;5096129;28;20043;-78
2022/01/09 02:33:20;;;;;;;9.45;5.15;;;;;;;1.36;74.87;93838.75;5124796;27;20038;-79
2022/01/09 02:35:51;;;;;;;7.05;4.20;;;;;;;1.29;73.70;93850.28;5133566;27;20569;-78
2022/01/09 02:38:17;;;;;;;;;;;;;;;1.21;74.77;93852.50;5134996;27;20047;-79
2022/01/09 02:40:42;;;;;;;8.18;3.90;;;;;;;1.16;75.23;93845.09;5132935;27;20408;-79
2022/01/09 02:43:08;;;;;;;6.47;4.03;;;;;;;1.09;74.35;93844.66;5113111;28;20027;-78
2022/01/09 02:45:33;;;;;;;8.10;4.22;;;;;;;1.10;74.66;93837.81;5112958;28;20027;-79
2022/01/09 02:48:01;;;;;;;7.28;4.45;;;;;;;1.04;75.28;93827.97;5113389;27;20542;-78
2022/01/09 02:50:32;;;;;;;7.45;4.43;;;;;;;1.03;75.26;93831.41;5112439;28;20027;-79
2022/01/09 02:53:01;;;;;;;9.32;4.20;;;;;;;1.03;75.33;93833.97;5113977;28;20055;-78
2022/01/09 02:55:27;;;;;;;8.55;3.92;;;;;;;1.03;76.04;93821.19;5113856;27;20397;-78
2022/01/09 02:57:59;;;;;;;7.45;3.95;;;;;;;1.08;76.36;93829.41;5127171;27;20504;-78
2022/01/09 03:00:26;;;;;;;6.22;3.60;;;;;;;1.11;76.04;93824.94;5115862;27;20043;-79
2022/01/09 03:02:51;;;;;;;7.75;4.60;;;;;;;1.13;76.46;93819.72;5125898;27;20459;-78
2022/01/09 03:05:17;;;;;;;7.28;4.38;;;;;;;1.18;77.38;93819.44;5112520;28;20035;-79
2022/01/09 03:07:43;;;;;;;7.05;4.00;;;;;;;1.19;76.72;93821.88;5113677;28;20053;-79
2022/01/09 03:10:09;;;;;;;8.07;4.20;;;;;;;1.17;75.85;93823.75;5112024;27;20077;-79
2022/01/09 03:12:34;;;;;;;9.02;5.30;;;;;;;1.10;74.27;93814.78;5133493;27;20027;-78
2022/01/09 03:15:00;;;;;;;12.23;6.30;;;;;;;1.03;74.79;93808.41;5115738;27;20070;-78
2022/01/09 03:17:25;;;;;;;10.95;5.20;;;;;;;0.93;74.60;93805.59;5115621;27;20552;-77
2022/01/09 03:19:51;;;;;;;6.90;3.80;;;;;;;0.85;74.52;93803.50;5098224;27;20084;-79
2022/01/09 03:22:16;;;;;;;7.32;3.95;;;;;;;0.82;74.33;93805.44;5115517;27;20089;-79
2022/01/09 03:24:42;;;;;;;6.90;3.97;;;;;;;0.66;74.22;93780.78;5113478;27;20026;-78
2022/01/09 03:27:11;;;;;;;7.50;3.80;;;;;;;0.79;76.55;93798.75;5132415;27;20056;-77
2022/01/09 03:29:37;;;;;;;7.10;4.03;;;;;;;0.79;77.30;93796.22;5133209;27;20020;-79
2022/01/09 03:32:03;;;;;;;7.30;3.65;;;;;;;0.78;76.17;93807.34;5130944;27;20088;-78
2022/01/09 03:34:28;;;;;;;7.18;3.90;;;;;;;0.73;75.54;93822.16;5132452;27;20420;-78
2022/01/09 03:36:54;;;;;;;8.45;5.28;;;;;;;0.70;75.38;93807.00;5134147;27;20043;-80
2022/01/09 03:39:19;;;;;;;9.95;5.47;;;;;;;0.72;75.42;93819.69;5132138;27;20035;-79
2022/01/09 03:41:44;;;;;;;13.43;6.30;;;;;;;0.65;75.19;93803.91;5121239;27;20039;-78
2022/01/09 03:44:10;;;;;;;10.32;5.05;;;;;;;0.64;75.37;93802.22;5094398;28;20035;-79
2022/01/09 03:46:35;;;;;;;8.07;4.60;;;;;;;0.64;75.89;93795.41;5094611;28;20031;-79
2022/01/09 03:49:01;;;;;;;6.60;3.10;;;;;;;0.69;75.52;93800.22;5112936;28;20023;-79
2022/01/09 03:51:32;;;;;;;6.57;3.30;;;;;;;0.72;75.59;93794.94;5131724;27;20031;-79
2022/01/09 03:53:58;;;;;;;;;;;;;;;0.70;75.41;93795.94;5132643;27;20508;-78
2022/01/09 03:56:23;;;;;;;6.88;3.20;;;;;;;0.66;76.06;93791.00;5133715;27;19920;-78
2022/01/09 03:58:48;;;;;;;6.22;3.28;;;;;;;0.63;75.56;93786.06;5131770;27;20489;-79
2022/01/09 04:01:14;;;;;;;6.63;3.45;;;;;;;0.61;75.98;93792.19;5114894;27;20039;-78
2022/01/09 04:03:39;;;;;;;7.38;3.92;;;;;;;0.63;75.43;93792.94;5131982;27;20048;-79
2022/01/09 04:06:05;;;;;;;6.03;3.25;;;;;;;0.56;76.86;93784.00;5114836;27;20039;-79
2022/01/09 04:08:31;;;;;;;7.00;4.22;;;;;;;0.67;77.94;93796.97;5111120;28;20030;-79
2022/01/09 04:10:57;;;;;;;7.90;4.70;;;;;;;0.74;77.91;93795.66;5129484;27;20039;-78
2022/01/09 04:13:22;;;;;;;11.10;6.75;;;;;;;0.71;77.49;93793.28;5114581;27;20031;-78
2022/01/09 04:15:49;;;;;;;9.70;5.30;;;;;;;0.75;77.09;93793.91;5114238;27;20023;-79
2022/01/09 04:18:19;;;;;;;13.40;7.95;;;;;;;0.77;76.76;93792.91;5114705;27;20043;-79
2022/01/09 04:20:44;;;;;;;8.25;4.90;;;;;;;0.73;76.95;93791.47;5131482;27;20581;-79
2022/01/09 04:23:11;;;;;;;10.70;6.20;;;;;;;0.81;77.31;93796.13;5093438;28;20023;-79
2022/01/09 04:25:37;;;;;;;8.15;5.20;;;;;;;0.77;76.71;93792.09;5094101;28;20036;-79
2022/01/09 04:28:03;;;;;;;7.90;4.45;;;;;;;0.75;76.39;93781.94;5093731;28;20031;-77
2022/01/09 04:30:29;;;;;;;6.15;3.65;;;;;;;0.80;76.82;93787.59;5126169;27;20050;-79
2022/01/09 04:32:55;;;;;;;9.93;5.13;;;;;;;0.84;77.04;93783.97;5113866;27;20026;-78
2022/01/09 04:35:20;;;;;;;7.88;4.47;;;;;;;0.87;77.75;93777.84;5130699;27;20404;-78
2022/01/09 04:37:47;;;;;;;8.50;4.22;;;;;;;0.92;77.88;93777.53;5129013;27;20516;-79
2022/01/09 04:40:14;;;;;;;7.00;3.63;;;;;;;0.98;77.71;93784.84;5113866;27;20035;-79
2022/01/09 04:42:50;;;;;;;7.97;4.22;;;;;;;1.04;78.01;93789.59;5118242;27;20031;-78
2022/01/09 04:45:17;;;;;;;7.32;4.20;;;;;;;1.09;78.04;93780.72;5094753;28;20184;-79
2022/01/09 04:47:46;;;;;;;8.57;4.68;;;;;;;1.15;78.53;93779.50;5093361;28;20416;-78
2022/01/09 04:50:16;;;;;;;6.90;3.85;;;;;;;1.24;78.55;93781.47;5111208;27;20028;-79
2022/01/09 04:52:42;;;;;;;7.35;4.28;;;;;;;1.32;78.44;93774.16;5093895;28;20055;-79
2022/01/09 04:55:08;;;;;;;9.35;4.68;;;;;;;1.37;78.49;93771.31;5109415;28;20034;-78
2022/01/09 04:57:33;;;;;;;12.27;5.40;;;;;;;1.40;78.90;93773.66;5110094;28;20032;-78
2022/01/09 04:59:59;;;;;;;13.23;5.45;;;;;;;1.48;78.89;93783.44;5128594;28;20035;-79
2022/01/09 05:02:24;;;;;;;10.15;5.25;;;;;;;1.44;77.74;93762.31;5113244;28;20035;-79
2022/01/09 05:04:50;;;;;;;9.70;5.13;;;;;;;1.49;78.16;93774.81;5130583;28;20027;-79
2022/01/09 05:07:15;;;;;;;29.73;15.57;;;;;;;1.43;77.67;93775.22;5131745;27;20027;-79
2022/01/09 05:09:40;;;;;;;22.92;13.50;;;;;;;1.31;78.19;93769.16;5125914;28;20020;-77
2022/01/09 05:12:06;;;;;;;27.33;15.88;;;;;;;1.39;78.57;93768.63;5113489;28;20027;-79
2022/01/09 05:14:33;;;;;;;22.33;13.57;;;;;;;1.42;78.02;93778.66;5126183;28;20437;-79
2022/01/09 05:16:58;;;;;;;21.48;12.48;;;;;;;1.38;78.21;93772.13;5076300;28;20043;-79
2022/01/09 05:19:28;;;;;;;20.05;11.48;;;;;;;1.42;77.95;93776.13;5125513;28;20522;-79
2022/01/09 05:21:54;;;;;;;12.40;7.47;;;;;;;1.46;77.26;93780.94;5130619;28;20568;-79
2022/01/09 05:24:20;;;;;;;16.38;10.48;;;;;;;1.46;77.56;93780.94;5101495;28;20025;-79
2022/01/09 05:26:45;;;;;;;31.25;17.65;;;;;;;1.46;77.57;93787.81;5093119;28;20069;-79
2022/01/09 05:29:11;;;;;;;26.38;15.35;;;;;;;1.44;77.86;93771.72;5109752;28;20088;-78
2022/01/09 05:31:36;;;;;;;19.42;12.30;;;;;;;1.48;77.61;93768.06;5110130;28;20052;-78
2022/01/09 05:34:02;;;;;;;15.93;9.95;;;;;;;1.47;77.36;93759.53;5106824;28;20023;-79
2022/01/09 05:36:27;;;;;;;14.50;7.47;;;;;;;1.45;76.90;93752.88;5130297;28;20050;-79
2022/01/09 05:38:53;;;;;;;10.10;5.68;;;;;;;1.41;76.63;93746.34;5130309;28;20023;-79
2022/01/09 05:41:18;;;;;;;7.65;3.97;;;;;;;1.43;76.87;93759.84;5131685;27;20031;-79
2022/01/09 05:43:43;;;;;;;6.30;3.70;;;;;;;1.39;76.94;93768.63;5128036;27;20288;-79
2022/01/09 05:46:10;;;;;;;6.60;4.07;;;;;;;1.41;77.30;93766.81;5131717;27;20036;-79
2022/01/09 05:48:36;;;;;;;7.55;3.63;;;;;;;1.43;76.80;93772.66;5113227;28;20512;-79
2022/01/09 05:51:01;;;;;;;5.90;3.55;;;;;;;1.43;76.76;93778.59;5131586;27;20035;-78
2022/01/09 05:53:26;;;;;;;5.82;3.45;;;;;;;1.40;76.98;93762.63;5119348;27;20027;-79
2022/01/09 05:55:52;;;;;;;7.88;4.10;;;;;;;1.49;76.77;93774.81;5109638;28;20031;-79
2022/01/09 05:58:17;;;;;;;9.20;4.45;;;;;;;1.52;77.11;93767.75;5109386;28;20027;-79
2022/01/09 06:00:43;;;;;;;9.18;5.25;;;;;;;1.55;77.52;93769.28;5113051;28;20026;-78
2022/01/09 06:03:08;;;;;;;7.28;4.47;;;;;;;1.58;78.10;93752.94;5113049;28;20027;-79
2022/01/09 06:05:33;;;;;;;7.55;4.68;;;;;;;1.62;77.75;93762.06;5112753;27;20252;-79
2022/01/09 06:07:59;;;;;;;6.45;3.95;;;;;;;1.61;78.15;93768.91;5134708;27;20027;-79
2022/01/09 06:10:24;;;;;;;7.82;3.72;;;;;;;1.55;77.84;93765.00;5118602;27;20047;-79
2022/01/09 06:12:50;;;;;;;7.03;4.28;;;;;;;1.55;78.00;93751.38;5095985;28;20051;-79
2022/01/09 06:15:15;;;;;;;16.92;11.68;;;;;;;1.61;77.60;93757.84;5111842;28;20096;-79
2022/01/09 06:17:41;;;;;;;6.82;4.40;;;;;;;1.65;77.86;93754.19;5095862;28;20092;-79
2022/01/09 06:20:08;;;;;;;6.97;3.60;;;;;;;1.72;78.06;93757.97;5112826;28;20032;-79
2022/01/09 06:22:33;;;;;;;8.75;4.65;;;;;;;1.70;78.05;93762.34;5128993;27;20038;-79
2022/01/09 06:24:58;;;;;;;8.07;4.38;;;;;;;1.76;78.51;93765.38;5116124;27;20473;-79
2022/01/09 06:27:24;;;;;;;8.38;3.90;;;;;;;1.79;78.16;93760.03;5099652;28;20061;-79
2022/01/09 06:29:49;;;;;;;8.00;4.07;;;;;;;1.82;78.29;93761.56;5077835;28;20077;-79
2022/01/09 06:32:15;;;;;;;8.73;5.15;;;;;;;1.82;77.66;93761.56;5113142;27;20051;-79
2022/01/09 06:34:41;;;;;;;8.75;4.88;;;;;;;1.75;77.97;93740.66;5089355;27;20035;-78
2022/01/09 06:37:07;;;;;;;33.30;16.75;;;;;;;1.83;78.29;93757.28;5132086;27;20034;-78
2022/01/09 06:39:32;;;;;;;18.67;8.95;;;;;;;1.91;78.15;93767.84;5100038;27;20027;-78
2022/01/09 06:41:58;;;;;;;14.50;6.70;;;;;;;1.94;78.54;93765.06;5111645;28;20455;-79
2022/01/09 06:44:23;;;;;;;14.93;5.90;;;;;;;1.92;78.08;93754.94;5126593;27;20036;-79
2022/01/09 06:46:48;;;;;;;11.02;5.60;;;;;;;2.01;77.95;93753.50;5114764;27;20064;-79
2022/01/09 06:49:14;;;;;;;15.40;6.97;;;;;;;2.04;78.17;93753.31;5138980;27;20034;-79
2022/01/09 06:51:39;;;;;;;22.15;10.25;;;;;;;2.10;78.15;93746.94;5133616;27;20405;-79
2022/01/09 06:54:05;;;;;;;23.77;11.05;;;;;;;2.22;78.70;93751.25;5128768;27;20035;-79
2022/01/09 06:56:30;;;;;;;23.60;12.10;;;;;;;2.27;78.40;93738.94;5132875;27;20400;-79
2022/01/09 06:58:56;;;;;;;29.10;17.25;;;;;;;2.30;77.98;93743.88;5111509;28;20080;-79
2022/01/09 07:01:21;;;;;;;31.60;17.85;;;;;;;2.37;78.23;93750.22;5125523;27;20113;-78
2022/01/09 07:03:47;;;;;;;15.18;8.90;;;;;;;2.42;78.20;93755.03;5132150;27;20031;-77
2022/01/09 07:06:12;;;;;;;11.77;6.95;;;;;;;2.40;78.18;93742.31;5134012;27;20039;-80
2022/01/09 07:08:37;;;;;;;10.30;5.72;;;;;;;2.52;77.36;93748.34;5128715;27;20034;-79
2022/01/09 07:11:04;;;;;;;11.15;6.30;;;;;;;2.55;77.37;93745.56;5105488;28;20035;-79
2022/01/09 07:13:29;;;;;;;10.32;6.57;;;;;;;2.56;77.17;93752.34;5124342;27;20035;-79
2022/01/09 07:15:55;;;;;;;9.35;5.60;;;;;;;2.56;77.21;93747.22;5115957;27;20031;-77
2022/01/09 07:18:20;;;;;;;17.77;12.40;;;;;;;2.54;77.24;93741.38;5122856;27;20073;-76
2022/01/09 07:20:46;;;;;;;29.33;16.13;;;;;;;2.52;77.10;93738.09;5096600;27;20054;-76
2022/01/09 07:23:11;;;;;;;31.73;15.23;;;;;;;2.58;77.35;93754.81;5103951;28;20433;-80
2022/01/09 07:25:36;;;;;;;24.15;13.30;;;;;;;2.62;77.15;93753.69;5114398;27;20030;-79
2022/01/09 07:28:02;;;;;;;22.27;12.32;;;;;;;2.61;76.92;93745.16;5153662;27;20023;-80
2022/01/09 07:30:28;;;;;;;20.23;11.48;;;;;;;2.69;76.98;93760.03;5134595;27;20133;-79
2022/01/09 07:32:54;;;;;;;22.42;11.70;;;;;;;2.76;77.26;93757.84;5152506;27;20023;-76
2022/01/09 07:35:20;;;;;;;26.13;15.38;;;;;;;2.81;77.21;93764.28;5140409;27;20047;-85
2022/01/09 07:37:45;;;;;;;132.43;63.08;;;;;;;2.90;76.89;93765.44;5114233;27;20404;-82
2022/01/09 07:40:12;;;;;;;66.35;33.47;;;;;;;2.98;76.82;93765.72;5110700;28;20059;-79
2022/01/09 07:42:37;;;;;;;52.50;27.33;;;;;;;3.05;76.64;93768.66;5110627;28;20127;-77
2022/01/09 07:45:06;;;;;;;42.13;23.25;;;;;;;3.11;76.78;93765.66;5121851;27;20035;-81
2022/01/09 07:47:33;;;;;;;31.85;19.17;;;;;;;3.14;76.13;93763.69;5131329;27;20059;-79
2022/01/09 07:49:58;;;;;;;32.35;18.15;;;;;;;3.23;76.17;93763.97;5123723;27;20019;-80
2022/01/09 07:52:23;;;;;;;36.13;21.50;;;;;;;3.25;76.33;93757.00;5151937;27;20045;-82
2022/01/09 07:54:49;;;;;;;23.30;13.30;;;;;;;3.33;75.96;93759.84;5134147;27;20019;-83
2022/01/09 07:57:14;;;;;;;32.88;19.90;;;;;;;3.35;75.93;93756.22;5139994;27;20085;-80
2022/01/09 07:59:40;;;;;;;19.42;10.57;;;;;;;3.46;75.22;93757.22;5129630;27;20056;-82
2022/01/09 08:02:05;;;;;;;24.02;10.45;;;;;;;3.52;74.68;93751.63;5130076;27;20500;-83
2022/01/09 08:04:31;;;;;;;22.38;13.32;;;;;;;3.50;75.81;93748.34;5113459;27;20094;-80
2022/01/09 08:06:56;;;;;;;26.25;14.43;;;;;;;3.53;75.87;93748.13;5094070;28;20039;-77
2022/01/09 08:09:22;;;;;;;28.80;17.88;;;;;;;3.62;74.97;93746.63;5104358;27;20492;-85
2022/01/09 08:11:47;;;;;;;39.47;24.30;;;;;;;3.69;75.18;93737.56;5124976;27;20315;-87
2022/01/09 08:14:13;;;;;;;53.40;34.65;;;;;;;3.71;74.94;93733.16;5116791;27;20015;-82
2022/01/09 08:16:38;;;;;;;46.17;30.50;;;;;;;3.82;74.78;93735.75;5097740;27;20031;-83
2022/01/09 08:19:03;;;;;;;48.70;33.20;;;;;;;3.93;74.55;93729.81;5104579;27;20031;-84
2022/01/09 08:21:29;;;;;;;51.42;30.25;;;;;;;4.01;74.60;93727.47;5110433;27;20038;-84
2022/01/09 08:23:55;;;;;;;38.85;21.80;;;;;;;4.08;73.61;93723.53;5131609;27;20011;-84
2022/01/09 08:26:20;;;;;;;50.65;27.23;;;;;;;4.13;73.14;93718.06;5130556;27;20041;-83
2022/01/09 08:28:48;;;;;;;40.17;22.52;;;;;;;4.18;73.26;93714.22;5128654;27;20034;-82
2022/01/09 08:31:17;;;;;;;45.30;26.60;;;;;;;4.26;73.29;93713.59;5131026;27;20061;-84
2022/01/09 08:33:42;;;;;;;35.70;22.50;;;;;;;4.29;73.49;93715.13;5108251;28;20026;-85
2022/01/09 08:36:08;;;;;;;32.65;21.42;;;;;;;4.37;73.73;93713.59;5095656;27;20031;-84
2022/01/09 08:38:33;;;;;;;33.10;19.55;;;;;;;4.43;73.44;93715.75;5109956;27;20027;-84
2022/01/09 08:40:59;;;;;;;30.73;17.88;;;;;;;4.54;73.19;93711.50;5129935;27;20039;-84
2022/01/09 08:43:24;;;;;;;28.38;17.55;;;;;;;4.55;73.34;93697.72;5114939;27;20030;-84
2022/01/09 08:45:50;;;;;;;40.95;25.42;;;;;;;4.69;72.76;93692.34;5112913;27;20062;-84
2022/01/09 08:48:15;;;;;;;36.05;23.35;;;;;;;4.74;72.08;93685.09;5129404;27;20084;-83
2022/01/09 08:50:41;;;;;;;31.42;19.73;;;;;;;4.94;72.92;93698.97;5128472;27;20023;-83
2022/01/09 08:53:06;;;;;;;30.63;17.77;;;;;;;5.01;71.76;93705.25;5113588;28;20023;-85
2022/01/09 08:55:32;;;;;;;32.88;17.80;;;;;;;5.17;72.54;93706.63;5113499;28;20443;-84
2022/01/09 08:57:57;;;;;;;25.13;13.68;;;;;;;5.29;70.47;93709.06;5131849;27;20015;-84
2022/01/09 09:00:24;;;;;;;34.45;20.58;;;;;;;5.38;71.14;93692.06;5092720;28;20035;-84
2022/01/09 09:02:50;;;;;;;37.15;22.30;;;;;;;5.67;70.04;93694.03;5094044;28;20084;-84
2022/01/09 09:05:15;;;;;;;29.35;16.30;;;;;;;5.82;69.10;93688.44;5093082;28;20035;-85
2022/01/09 09:07:40;;;;;;;31.58;15.68;;;;;;;5.91;69.09;93673.16;5116966;27;20023;-85
2022/01/09 09:10:06;;;;;;;20.45;11.90;;;;;;;6.13;66.53;93669.63;5109119;28;20050;-85
2022/01/09 09:12:32;;;;;;;15.80;9.93;;;;;;;6.06;66.96;93668.53;5108618;28;20064;-84
2022/01/09 09:15:03;;;;;;;19.48;10.45;;;;;;;6.11;66.40;93671.53;5112602;28;20023;-85
2022/01/09 09:17:29;;;;;;;22.55;12.02;;;;;;;6.23;66.87;93660.19;5115794;28;20034;-84
2022/01/09 09:19:54;;;;;;;20.38;11.57;;;;;;;6.28;66.12;93652.88;5120856;28;20044;-85
2022/01/09 09:22:20;;;;;;;22.85;12.80;;;;;;;6.38;66.11;93648.59;5118531;27;20039;-84
2022/01/09 09:24:45;;;;;;;25.58;13.23;;;;;;;6.48;65.75;93640.88;5111433;28;20023;-85
2022/01/09 09:27:11;;;;;;;23.08;13.35;;;;;;;6.60;65.74;93637.25;5129720;27;20031;-84
2022/01/09 09:29:38;;;;;;;27.63;14.18;;;;;;;6.68;65.32;93634.81;5111628;28;20409;-85
2022/01/09 09:32:04;;;;;;;30.05;13.98;;;;;;;6.63;64.54;93624.09;5123336;28;20039;-85
2022/01/09 09:34:29;;;;;;;29.85;14.57;;;;;;;6.64;65.12;93623.13;5093654;28;20406;-87
2022/01/09 09:36:54;;;;;;;22.92;12.27;;;;;;;6.60;65.29;93616.63;5095248;28;20027;-79
2022/01/09 09:39:20;;;;;;;16.35;9.52;;;;;;;6.63;64.93;93618.94;5118551;28;20485;-75
2022/01/09 09:41:46;;;;;;;18.63;9.63;;;;;;;6.68;64.83;93603.03;5122772;27;21133;-75
2022/01/09 09:44:12;;;;;;;28.42;17.58;;;;;;;6.70;65.11;93598.56;5104092;27;20411;-79
2022/01/09 09:46:38;;;;;;;17.75;10.15;;;;;;;6.82;64.79;93601.84;5134790;27;20049;-79
2022/01/09 09:49:03;;;;;;;19.95;10.60;;;;;;;6.94;64.41;93598.19;5095460;27;20488;-79
2022/01/09 09:51:30;;;;;;;22.90;11.48;;;;;;;7.11;64.15;93597.53;5096917;28;20038;-79
2022/01/09 09:53:56;;;;;;;28.15;15.23;;;;;;;7.28;64.21;93590.84;5112596;28;20016;-79
2022/01/09 09:56:21;;;;;;;24.17;14.10;;;;;;;7.38;63.74;93575.34;5111648;28;20036;-78
2022/01/09 09:58:51;;;;;;;24.38;12.10;;;;;;;7.50;62.51;93581.19;5111391;28;20093;-79
2022/01/09 10:01:23;;;;;;;15.57;8.75;;;;;;;7.55;61.82;93581.56;5112826;28;20580;-79
2022/01/09 10:04:01;;;;;;;11.85;7.28;;;;;;;7.60;60.84;93587.13;5111248;28;20031;-79
2022/01/09 10:06:35;;;;;;;11.45;7.28;;;;;;;7.56;60.89;93576.28;5112096;28;20075;-78
2022/01/09 10:09:13;;;;;;;10.07;5.85;;;;;;;7.57;60.17;93564.16;5114235;28;20015;-79
2022/01/09 10:11:41;;;;;;;9.50;5.72;;;;;;;7.70;60.95;93561.28;5114728;28;20459;-79
2022/01/09 10:14:21;;;;;;;10.20;6.10;;;;;;;7.69;60.68;93546.72;5112859;28;20047;-75
2022/01/09 10:17:13;;;;;;;12.57;7.10;;;;;;;7.92;60.61;93562.72;5113295;28;20572;-81
2022/01/09 10:19:41;;;;;;;17.90;8.63;;;;;;;8.02;60.27;93564.31;5111472;28;20208;-78
2022/01/09 10:22:06;;;;;;;13.30;6.47;;;;;;;8.03;59.35;93559.97;5112734;28;20610;-78
2022/01/09 10:24:32;;;;;;;12.35;7.07;;;;;;;8.05;59.65;93558.88;5113997;27;20076;-78
2022/01/09 10:26:57;;;;;;;10.48;6.55;;;;;;;8.09;59.99;93550.81;5114943;28;20043;-82
2022/01/09 10:29:23;;;;;;;14.90;6.57;;;;;;;8.24;58.78;93549.38;5114081;28;20023;-78
2022/01/09 10:31:50;;;;;;;11.18;6.75;;;;;;;8.27;58.32;93551.66;5112450;28;20425;-78
2022/01/09 10:34:19;;;;;;;12.65;6.97;;;;;;;8.55;58.26;93538.75;5095699;28;20068;-78
2022/01/09 10:36:50;;;;;;;10.70;7.03;;;;;;;8.81;57.02;93534.50;5112827;28;20558;-78
2022/01/09 10:39:17;;;;;;;10.95;6.53;;;;;;;8.77;57.19;93540.13;5112691;28;20066;-77
2022/01/09 10:41:58;;;;;;;13.02;7.53;;;;;;;8.85;56.48;93530.63;5112670;28;20463;-77
2022/01/09 10:44:34;;;;;;;10.77;6.68;;;;;;;8.92;56.43;93523.91;5112528;28;20124;-78
2022/01/09 10:47:07;;;;;;;14.90;8.80;;;;;;;9.02;56.36;93521.25;5112980;28;20063;-78
2022/01/09 10:49:46;;;;;;;14.85;8.20;;;;;;;9.23;55.36;93531.31;5112477;28;20459;-78
2022/01/09 10:52:17;;;;;;;10.85;6.50;;;;;;;9.10;55.01;93517.91;5112119;28;20569;-77
2022/01/09 10:54:46;;;;;;;9.80;5.63;;;;;;;9.12;55.65;93521.19;5113188;28;20023;-77
2022/01/09 10:57:19;;;;;;;8.82;5.65;;;;;;;9.26;55.05;93514.66;5113002;28;20023;-78
2022/01/09 10:59:45;;;;;;;13.35;7.50;;;;;;;9.43;55.36;93521.56;5112283;28;20023;-78
2022/01/09 11:02:12;;;;;;;12.25;6.80;;;;;;;9.50;54.29;93514.81;5112487;28;20027;-78
2022/01/09 11:04:38;;;;;;;11.43;7.25;;;;;;;9.58;54.17;93509.69;5112225;28;20554;-78
2022/01/09 11:07:03;;;;;;;14.27;8.30;;;;;;;9.70;53.87;93506.84;5112250;28;20054;-78
2022/01/09 11:09:30;;;;;;;13.13;7.45;;;;;;;9.68;53.95;93494.03;5111987;28;20072;-77
2022/01/09 11:11:56;;;;;;;33.55;21.00;;;;;;;9.68;54.13;93488.03;5113265;28;20172;-78
2022/01/09 11:14:22;;;;;;;22.85;14.68;;;;;;;9.78;53.92;93494.72;5112053;28;20499;-78
2022/01/09 11:16:51;;;;;;;27.23;17.08;;;;;;;9.79;53.66;93496.34;5112283;28;20063;-77
2022/01/09 11:19:24;;;;;;;36.42;17.05;;;;;;;9.86;53.76;93493.94;5111875;28;20054;-78
2022/01/09 11:22:01;;;;;;;35.97;19.52;;;;;;;9.95;53.41;93489.63;5111960;28;20122;-78
2022/01/09 11:24:30;;;;;;;17.83;11.38;;;;;;;9.92;53.31;93492.50;5111862;28;20421;-78
2022/01/09 11:27:00;;;;;;;14.65;9.40;;;;;;;9.98;53.47;93486.72;5113613;28;20092;-79
2022/01/09 11:29:29;;;;;;;10.60;7.18;;;;;;;10.00;53.12;93480.41;5111872;28;20059;-79